KEND/END METAR and TAF weather

Enter ICAO airport designator
Station Type Date Time Source
KEND METAR 2018/12/15 21:56 UTC NOAA

KEND 152156Z AUTO 16006KT 10SM CLR 13/M11 M RMK AO2 SLPNO T01261111 VISNO RWY35C $


Station Type Date Time Source
KEND Decoded METAR 2018/12/15 21:56 UTC NOAA

Vance Air Force Base / Enid, OK, United States (KEND) 36-20N 097-55W
Dec 15, 2018 - 04:56 PM EST / 2018.12.15 2156 UTC
Wind: from the SSE (160 degrees) at 7 MPH (6 KT):0
Visibility: 10 mile(s):0
Sky conditions: clear
Temperature: 54.7 F (12.6 C)
Dew Point: 12.0 F (-11.1 C)
Relative Humidity: 17%
ob: KEND 152156Z AUTO 16006KT 10SM CLR 13/M11 M RMK AO2 SLPNO T01261111 VISNO RWY35C
cycle: 22

Station Type Date Time Source
KEND TAF 2018/12/15 00:15 UTC NOAA

TAF TAF
AMD KEND 150000Z 1500/1601 34009KT 9999 SKC QNH3018INS
BECMG 1517/1518 VRB06KT 9999 SKC QNH3014INS TX10/1518Z TNM01/1514Z LAST NO
AMDS AFT 1500 NEXT 1611


Example: see airport list